sensor_id;sensor_type;location;lat;lon;timestamp;temperature;humidity
5978;DHT22;3015;51.390;12.256;2022-09-03T00:00:01;16.40;99.90
5978;DHT22;3015;51.390;12.256;2022-09-03T00:08:26;16.10;99.90
5978;DHT22;3015;51.390;12.256;2022-09-03T00:11:00;16.10;99.90
5978;DHT22;3015;51.390;12.256;2022-09-03T00:13:38;16.00;99.90
5978;DHT22;3015;51.390;12.256;2022-09-03T00:16:10;16.00;99.90
5978;DHT22;3015;51.390;12.256;2022-09-03T00:18:51;15.90;99.90
5978;DHT22;3015;51.390;12.256;2022-09-03T00:21:31;15.70;99.90
5978;DHT22;3015;51.390;12.256;2022-09-03T00:23:59;15.60;99.90
5978;DHT22;3015;51.390;12.256;2022-09-03T00:26:27;15.60;99.90
5978;DHT22;3015;51.390;12.256;2022-09-03T00:29:08;15.60;99.90
5978;DHT22;3015;51.390;12.256;2022-09-03T00:31:43;15.50;99.90
5978;DHT22;3015;51.390;12.256;2022-09-03T00:34:16;15.50;99.90
5978;DHT22;3015;51.390;12.256;2022-09-03T00:36:45;15.40;99.90
5978;DHT22;3015;51.390;12.256;2022-09-03T00:39:14;15.40;99.90
5978;DHT22;3015;51.390;12.256;2022-09-03T01:02:02;15.30;99.90
5978;DHT22;3015;51.390;12.256;2022-09-03T01:07:48;15.30;99.90
5978;DHT22;3015;51.390;12.256;2022-09-03T01:16:47;15.30;99.90
5978;DHT22;3015;51.390;12.256;2022-09-03T01:19:31;15.30;99.90
5978;DHT22;3015;51.390;12.256;2022-09-03T01:27:55;15.20;99.90
5978;DHT22;3015;51.390;12.256;2022-09-03T01:30:22;15.20;99.90
5978;DHT22;3015;51.390;12.256;2022-09-03T01:35:46;15.30;99.90
5978;DHT22;3015;51.390;12.256;2022-09-03T01:38:26;15.20;99.90
5978;DHT22;3015;51.390;12.256;2022-09-03T01:46:39;15.20;99.90
5978;DHT22;3015;51.390;12.256;2022-09-03T01:51:38;15.20;99.90
5978;DHT22;3015;51.390;12.256;2022-09-03T02:02:26;15.10;99.90
5978;DHT22;3015;51.390;12.256;2022-09-03T02:05:03;15.10;99.90
5978;DHT22;3015;51.390;12.256;2022-09-03T02:07:35;15.10;99.90
5978;DHT22;3015;51.390;12.256;2022-09-03T02:10:04;15.10;99.90
5978;DHT22;3015;51.390;12.256;2022-09-03T02:12:31;15.10;99.90
5978;DHT22;3015;51.390;12.256;2022-09-03T02:15:00;15.00;99.90
5978;DHT22;3015;51.390;12.256;2022-09-03T02:17:29;15.00;99.90
5978;DHT22;3015;51.390;12.256;2022-09-03T02:19:56;15.00;99.90
5978;DHT22;3015;51.390;12.256;2022-09-03T02:22:22;15.00;99.90
5978;DHT22;3015;51.390;12.256;2022-09-03T02:24:48;14.90;99.90
5978;DHT22;3015;51.390;12.256;2022-09-03T02:27:15;14.90;99.90
5978;DHT22;3015;51.390;12.256;2022-09-03T02:29:41;14.90;99.90
5978;DHT22;3015;51.390;12.256;2022-09-03T02:32:06;14.80;99.90
5978;DHT22;3015;51.390;12.256;2022-09-03T02:34:32;14.70;99.90
5978;DHT22;3015;51.390;12.256;2022-09-03T02:36:58;14.70;99.90
5978;DHT22;3015;51.390;12.256;2022-09-03T02:39:23;14.60;99.90
5978;DHT22;3015;51.390;12.256;2022-09-03T02:41:54;14.50;99.90
5978;DHT22;3015;51.390;12.256;2022-09-03T02:44:32;14.50;99.90
5978;DHT22;3015;51.390;12.256;2022-09-03T02:47:07;14.40;99.90
5978;DHT22;3015;51.390;12.256;2022-09-03T02:49:33;14.20;99.90
5978;DHT22;3015;51.390;12.256;2022-09-03T02:52:01;14.10;99.90
5978;DHT22;3015;51.390;12.256;2022-09-03T02:54:31;14.00;99.90
5978;DHT22;3015;51.390;12.256;2022-09-03T02:56:58;14.00;99.90
5978;DHT22;3015;51.390;12.256;2022-09-03T02:59:24;14.00;99.90
5978;DHT22;3015;51.390;12.256;2022-09-03T03:01:53;13.90;99.90
5978;DHT22;3015;51.390;12.256;2022-09-03T03:04:18;13.80;99.90
5978;DHT22;3015;51.390;12.256;2022-09-03T03:06:44;13.70;99.90
5978;DHT22;3015;51.390;12.256;2022-09-03T03:09:10;13.70;99.90
5978;DHT22;3015;51.390;12.256;2022-09-03T03:11:36;13.70;99.90
5978;DHT22;3015;51.390;12.256;2022-09-03T03:14:02;13.70;99.90
5978;DHT22;3015;51.390;12.256;2022-09-03T03:16:27;13.60;99.90
5978;DHT22;3015;51.390;12.256;2022-09-03T03:18:55;13.50;99.90
5978;DHT22;3015;51.390;12.256;2022-09-03T03:21:21;13.50;99.90
5978;DHT22;3015;51.390;12.256;2022-09-03T03:23:47;13.50;99.90
5978;DHT22;3015;51.390;12.256;2022-09-03T03:26:15;13.40;99.90
5978;DHT22;3015;51.390;12.256;2022-09-03T03:28:45;13.40;99.90
5978;DHT22;3015;51.390;12.256;2022-09-03T03:31:19;13.40;99.90
5978;DHT22;3015;51.390;12.256;2022-09-03T03:33:53;13.30;99.90
5978;DHT22;3015;51.390;12.256;2022-09-03T03:36:20;13.40;99.90
5978;DHT22;3015;51.390;12.256;2022-09-03T03:38:46;13.50;99.90
5978;DHT22;3015;51.390;12.256;2022-09-03T03:41:20;13.50;99.90
5978;DHT22;3015;51.390;12.256;2022-09-03T03:43:47;13.50;99.90
5978;DHT22;3015;51.390;12.256;2022-09-03T03:46:13;13.60;99.90
5978;DHT22;3015;51.390;12.256;2022-09-03T03:48:39;13.60;99.90
5978;DHT22;3015;51.390;12.256;2022-09-03T03:51:07;13.60;99.90
5978;DHT22;3015;51.390;12.256;2022-09-03T03:53:34;13.60;99.90
5978;DHT22;3015;51.390;12.256;2022-09-03T03:56:03;13.70;99.90
5978;DHT22;3015;51.390;12.256;2022-09-03T03:58:29;13.70;99.90
5978;DHT22;3015;51.390;12.256;2022-09-03T04:01:03;13.70;99.90
5978;DHT22;3015;51.390;12.256;2022-09-03T04:03:29;13.70;99.90
5978;DHT22;3015;51.390;12.256;2022-09-03T04:05:58;13.70;99.90
5978;DHT22;3015;51.390;12.256;2022-09-03T04:08:25;13.70;99.90
5978;DHT22;3015;51.390;12.256;2022-09-03T04:10:51;13.70;99.90
5978;DHT22;3015;51.390;12.256;2022-09-03T04:13:17;13.60;99.90
5978;DHT22;3015;51.390;12.256;2022-09-03T04:15:43;13.60;99.90
5978;DHT22;3015;51.390;12.256;2022-09-03T04:18:09;13.60;99.90
5978;DHT22;3015;51.390;12.256;2022-09-03T04:20:35;13.50;99.90
5978;DHT22;3015;51.390;12.256;2022-09-03T04:23:02;13.50;99.90
5978;DHT22;3015;51.390;12.256;2022-09-03T04:25:28;13.40;99.90
5978;DHT22;3015;51.390;12.256;2022-09-03T04:27:53;13.30;99.90
5978;DHT22;3015;51.390;12.256;2022-09-03T04:30:19;13.30;99.90
5978;DHT22;3015;51.390;12.256;2022-09-03T04:32:45;13.20;99.90
5978;DHT22;3015;51.390;12.256;2022-09-03T04:35:21;13.30;99.90
5978;DHT22;3015;51.390;12.256;2022-09-03T04:37:47;13.30;99.90
5978;DHT22;3015;51.390;12.256;2022-09-03T04:40:13;13.20;99.90
5978;DHT22;3015;51.390;12.256;2022-09-03T04:42:39;13.20;99.90
5978;DHT22;3015;51.390;12.256;2022-09-03T04:45:05;13.20;99.90
5978;DHT22;3015;51.390;12.256;2022-09-03T04:47:31;13.20;99.90
5978;DHT22;3015;51.390;12.256;2022-09-03T04:49:57;13.30;99.90
5978;DHT22;3015;51.390;12.256;2022-09-03T04:52:23;13.20;99.90
5978;DHT22;3015;51.390;12.256;2022-09-03T04:54:49;13.20;99.90
5978;DHT22;3015;51.390;12.256;2022-09-03T04:57:15;13.20;99.90
5978;DHT22;3015;51.390;12.256;2022-09-03T04:59:41;13.20;99.90
5978;DHT22;3015;51.390;12.256;2022-09-03T05:02:07;13.30;99.90
5978;DHT22;3015;51.390;12.256;2022-09-03T05:04:34;13.30;99.90
5978;DHT22;3015;51.390;12.256;2022-09-03T05:07:00;13.40;99.90
5978;DHT22;3015;51.390;12.256;2022-09-03T05:09:25;13.50;99.90
5978;DHT22;3015;51.390;12.256;2022-09-03T05:11:51;13.50;99.90
5978;DHT22;3015;51.390;12.256;2022-09-03T05:14:17;13.60;99.90
5978;DHT22;3015;51.390;12.256;2022-09-03T05:16:42;13.70;99.90
5978;DHT22;3015;51.390;12.256;2022-09-03T05:19:08;13.80;99.90
5978;DHT22;3015;51.390;12.256;2022-09-03T05:21:35;13.90;99.90
5978;DHT22;3015;51.390;12.256;2022-09-03T05:24:01;14.00;99.90
5978;DHT22;3015;51.390;12.256;2022-09-03T05:26:29;14.10;99.90
5978;DHT22;3015;51.390;12.256;2022-09-03T05:28:58;14.20;99.90
5978;DHT22;3015;51.390;12.256;2022-09-03T05:31:25;14.30;99.90
5978;DHT22;3015;51.390;12.256;2022-09-03T05:33:54;14.30;99.90
5978;DHT22;3015;51.390;12.256;2022-09-03T05:36:23;14.40;99.90
5978;DHT22;3015;51.390;12.256;2022-09-03T05:38:50;14.50;99.90
5978;DHT22;3015;51.390;12.256;2022-09-03T05:41:19;14.50;99.90
5978;DHT22;3015;51.390;12.256;2022-09-03T05:43:48;14.60;99.90
5978;DHT22;3015;51.390;12.256;2022-09-03T05:46:19;14.70;99.90
5978;DHT22;3015;51.390;12.256;2022-09-03T05:48:45;14.90;99.90
5978;DHT22;3015;51.390;12.256;2022-09-03T05:51:14;15.00;99.90
5978;DHT22;3015;51.390;12.256;2022-09-03T05:53:44;15.10;99.90
5978;DHT22;3015;51.390;12.256;2022-09-03T05:56:12;15.20;99.90
5978;DHT22;3015;51.390;12.256;2022-09-03T05:58:40;15.30;99.90
5978;DHT22;3015;51.390;12.256;2022-09-03T06:03:37;15.40;99.90
5978;DHT22;3015;51.390;12.256;2022-09-03T06:06:03;15.50;99.90
5978;DHT22;3015;51.390;12.256;2022-09-03T06:08:29;15.50;99.90
5978;DHT22;3015;51.390;12.256;2022-09-03T06:10:59;15.60;99.90
5978;DHT22;3015;51.390;12.256;2022-09-03T06:13:24;15.60;99.90
5978;DHT22;3015;51.390;12.256;2022-09-03T06:15:58;15.60;99.90
5978;DHT22;3015;51.390;12.256;2022-09-03T06:18:25;15.70;99.90
5978;DHT22;3015;51.390;12.256;2022-09-03T06:20:55;15.70;99.90
5978;DHT22;3015;51.390;12.256;2022-09-03T06:23:22;15.80;99.90
5978;DHT22;3015;51.390;12.256;2022-09-03T06:25:55;16.00;99.90
5978;DHT22;3015;51.390;12.256;2022-09-03T06:28:24;16.10;99.90
5978;DHT22;3015;51.390;12.256;2022-09-03T06:30:51;16.30;99.90
5978;DHT22;3015;51.390;12.256;2022-09-03T06:33:17;16.50;99.90
5978;DHT22;3015;51.390;12.256;2022-09-03T06:35:43;16.70;99.90
5978;DHT22;3015;51.390;12.256;2022-09-03T06:38:09;17.10;99.90
5978;DHT22;3015;51.390;12.256;2022-09-03T06:40:38;17.50;99.90
5978;DHT22;3015;51.390;12.256;2022-09-03T06:43:03;17.80;99.90
5978;DHT22;3015;51.390;12.256;2022-09-03T06:45:30;18.20;99.90
5978;DHT22;3015;51.390;12.256;2022-09-03T06:47:56;18.60;99.90
5978;DHT22;3015;51.390;12.256;2022-09-03T06:50:22;19.10;99.90
5978;DHT22;3015;51.390;12.256;2022-09-03T06:52:52;19.60;99.90
5978;DHT22;3015;51.390;12.256;2022-09-03T06:55:21;20.20;99.90
5978;DHT22;3015;51.390;12.256;2022-09-03T06:57:47;20.90;99.90
5978;DHT22;3015;51.390;12.256;2022-09-03T07:00:14;20.80;99.90
5978;DHT22;3015;51.390;12.256;2022-09-03T07:02:40;21.30;99.90
5978;DHT22;3015;51.390;12.256;2022-09-03T07:05:07;21.90;99.90
5978;DHT22;3015;51.390;12.256;2022-09-03T07:07:33;22.60;99.90
5978;DHT22;3015;51.390;12.256;2022-09-03T07:09:58;23.20;99.90
5978;DHT22;3015;51.390;12.256;2022-09-03T07:12:26;24.00;99.90
5978;DHT22;3015;51.390;12.256;2022-09-03T07:14:51;24.70;99.90
5978;DHT22;3015;51.390;12.256;2022-09-03T07:17:17;24.80;99.90
5978;DHT22;3015;51.390;12.256;2022-09-03T07:19:43;25.10;99.90
5978;DHT22;3015;51.390;12.256;2022-09-03T07:22:08;25.50;99.90
5978;DHT22;3015;51.390;12.256;2022-09-03T07:24:34;26.10;99.90
5978;DHT22;3015;51.390;12.256;2022-09-03T07:27:02;25.80;99.90
5978;DHT22;3015;51.390;12.256;2022-09-03T07:29:29;26.10;99.90
5978;DHT22;3015;51.390;12.256;2022-09-03T07:31:55;26.30;99.90
5978;DHT22;3015;51.390;12.256;2022-09-03T07:34:21;26.10;99.90
5978;DHT22;3015;51.390;12.256;2022-09-03T07:36:51;26.30;99.90
5978;DHT22;3015;51.390;12.256;2022-09-03T07:39:18;25.50;99.90
5978;DHT22;3015;51.390;12.256;2022-09-03T07:41:44;26.50;99.90
5978;DHT22;3015;51.390;12.256;2022-09-03T07:44:12;27.80;99.90
5978;DHT22;3015;51.390;12.256;2022-09-03T07:46:39;27.90;99.90
5978;DHT22;3015;51.390;12.256;2022-09-03T07:49:06;28.30;99.90
5978;DHT22;3015;51.390;12.256;2022-09-03T07:51:34;29.30;99.90
5978;DHT22;3015;51.390;12.256;2022-09-03T07:54:02;28.40;99.90
5978;DHT22;3015;51.390;12.256;2022-09-03T07:56:29;29.70;99.90
5978;DHT22;3015;51.390;12.256;2022-09-03T07:58:59;30.70;99.90
5978;DHT22;3015;51.390;12.256;2022-09-03T08:01:26;30.50;99.90
5978;DHT22;3015;51.390;12.256;2022-09-03T08:03:53;30.20;99.90
5978;DHT22;3015;51.390;12.256;2022-09-03T08:06:21;31.30;99.90
5978;DHT22;3015;51.390;12.256;2022-09-03T08:08:47;31.40;99.90
5978;DHT22;3015;51.390;12.256;2022-09-03T08:11:18;31.60;99.90
5978;DHT22;3015;51.390;12.256;2022-09-03T08:13:56;30.10;99.90
5978;DHT22;3015;51.390;12.256;2022-09-03T08:16:27;31.20;99.90
5978;DHT22;3015;51.390;12.256;2022-09-03T08:18:53;30.90;99.90
5978;DHT22;3015;51.390;12.256;2022-09-03T08:21:19;32.00;99.90
5978;DHT22;3015;51.390;12.256;2022-09-03T08:23:46;32.60;99.90
5978;DHT22;3015;51.390;12.256;2022-09-03T08:26:13;33.50;99.90
5978;DHT22;3015;51.390;12.256;2022-09-03T08:28:40;33.50;99.90
5978;DHT22;3015;51.390;12.256;2022-09-03T08:31:09;34.00;99.90
5978;DHT22;3015;51.390;12.256;2022-09-03T08:33:39;33.60;99.90
5978;DHT22;3015;51.390;12.256;2022-09-03T08:36:10;33.40;99.90
5978;DHT22;3015;51.390;12.256;2022-09-03T08:38:37;31.90;99.90
5978;DHT22;3015;51.390;12.256;2022-09-03T08:41:27;32.90;99.90
5978;DHT22;3015;51.390;12.256;2022-09-03T08:44:23;33.90;99.90
5978;DHT22;3015;51.390;12.256;2022-09-03T08:47:25;34.60;99.90
5978;DHT22;3015;51.390;12.256;2022-09-03T08:50:03;36.10;99.90
5978;DHT22;3015;51.390;12.256;2022-09-03T08:52:53;36.00;99.90
5978;DHT22;3015;51.390;12.256;2022-09-03T08:55:28;34.60;99.90
5978;DHT22;3015;51.390;12.256;2022-09-03T08:58:05;35.40;99.90
5978;DHT22;3015;51.390;12.256;2022-09-03T09:00:56;36.20;99.90
5978;DHT22;3015;51.390;12.256;2022-09-03T09:06:27;36.50;99.90
5978;DHT22;3015;51.390;12.256;2022-09-03T09:17:53;37.20;99.90
5978;DHT22;3015;51.390;12.256;2022-09-03T09:20:54;36.00;99.90
5978;DHT22;3015;51.390;12.256;2022-09-03T09:23:35;36.00;99.90
5978;DHT22;3015;51.390;12.256;2022-09-03T09:26:07;36.70;99.90
5978;DHT22;3015;51.390;12.256;2022-09-03T09:28:36;36.60;99.90
5978;DHT22;3015;51.390;12.256;2022-09-03T09:31:04;37.40;99.90
5978;DHT22;3015;51.390;12.256;2022-09-03T09:33:32;36.20;99.90
5978;DHT22;3015;51.390;12.256;2022-09-03T09:36:02;35.90;99.90
5978;DHT22;3015;51.390;12.256;2022-09-03T09:38:33;35.60;99.90
5978;DHT22;3015;51.390;12.256;2022-09-03T09:41:14;35.00;99.90
5978;DHT22;3015;51.390;12.256;2022-09-03T09:43:40;33.60;99.90
5978;DHT22;3015;51.390;12.256;2022-09-03T09:46:12;33.40;99.90
5978;DHT22;3015;51.390;12.256;2022-09-03T09:48:48;34.50;99.90
5978;DHT22;3015;51.390;12.256;2022-09-03T09:51:20;34.70;99.90
5978;DHT22;3015;51.390;12.256;2022-09-03T09:53:47;34.80;99.90
5978;DHT22;3015;51.390;12.256;2022-09-03T09:56:24;34.70;99.90
5978;DHT22;3015;51.390;12.256;2022-09-03T09:59:00;34.70;99.90
5978;DHT22;3015;51.390;12.256;2022-09-03T10:01:26;34.70;99.90
5978;DHT22;3015;51.390;12.256;2022-09-03T10:03:59;33.60;99.90
5978;DHT22;3015;51.390;12.256;2022-09-03T10:06:26;34.50;99.90
5978;DHT22;3015;51.390;12.256;2022-09-03T10:09:15;34.90;99.90
5978;DHT22;3015;51.390;12.256;2022-09-03T10:12:07;34.50;99.90
5978;DHT22;3015;51.390;12.256;2022-09-03T10:14:39;34.10;99.90
5978;DHT22;3015;51.390;12.256;2022-09-03T10:17:18;33.60;99.90
5978;DHT22;3015;51.390;12.256;2022-09-03T10:22:40;33.70;99.90
5978;DHT22;3015;51.390;12.256;2022-09-03T10:25:09;33.40;99.90
5978;DHT22;3015;51.390;12.256;2022-09-03T10:27:35;31.80;99.90
5978;DHT22;3015;51.390;12.256;2022-09-03T10:30:02;31.60;99.90
5978;DHT22;3015;51.390;12.256;2022-09-03T10:36:15;33.30;99.90
5978;DHT22;3015;51.390;12.256;2022-09-03T10:38:38;33.30;99.90
5978;DHT22;3015;51.390;12.256;2022-09-03T10:49:39;34.60;99.90
5978;DHT22;3015;51.390;12.256;2022-09-03T10:52:52;34.70;99.90
5978;DHT22;3015;51.390;12.256;2022-09-03T11:00:39;34.70;99.90
5978;DHT22;3015;51.390;12.256;2022-09-03T11:03:14;34.60;99.90
5978;DHT22;3015;51.390;12.256;2022-09-03T11:08:57;32.00;99.90
5978;DHT22;3015;51.390;12.256;2022-09-03T11:11:30;30.60;99.90
5978;DHT22;3015;51.390;12.256;2022-09-03T11:14:07;31.10;99.90
5978;DHT22;3015;51.390;12.256;2022-09-03T11:16:59;31.90;99.90
5978;DHT22;3015;51.390;12.256;2022-09-03T11:19:36;32.50;99.90
5978;DHT22;3015;51.390;12.256;2022-09-03T11:22:06;31.90;99.90
5978;DHT22;3015;51.390;12.256;2022-09-03T11:24:33;32.50;99.90
5978;DHT22;3015;51.390;12.256;2022-09-03T11:29:52;33.50;99.90
5978;DHT22;3015;51.390;12.256;2022-09-03T11:32:44;33.30;99.90
5978;DHT22;3015;51.390;12.256;2022-09-03T11:35:28;32.30;99.90
5978;DHT22;3015;51.390;12.256;2022-09-03T11:48:53;32.00;99.90
5978;DHT22;3015;51.390;12.256;2022-09-03T11:51:33;32.50;99.90
5978;DHT22;3015;51.390;12.256;2022-09-03T11:54:23;33.30;99.90
5978;DHT22;3015;51.390;12.256;2022-09-03T11:57:02;31.80;99.90
5978;DHT22;3015;51.390;12.256;2022-09-03T11:59:29;31.20;99.90
5978;DHT22;3015;51.390;12.256;2022-09-03T12:10:35;32.20;99.90
5978;DHT22;3015;51.390;12.256;2022-09-03T12:18:48;31.90;99.90
5978;DHT22;3015;51.390;12.256;2022-09-03T12:21:17;31.60;99.90
5978;DHT22;3015;51.390;12.256;2022-09-03T12:23:49;31.90;99.90
5978;DHT22;3015;51.390;12.256;2022-09-03T12:28:49;33.00;99.90
5978;DHT22;3015;51.390;12.256;2022-09-03T12:31:25;33.60;99.90
5978;DHT22;3015;51.390;12.256;2022-09-03T12:34:14;34.50;99.90
5978;DHT22;3015;51.390;12.256;2022-09-03T12:36:51;34.80;99.90
5978;DHT22;3015;51.390;12.256;2022-09-03T12:39:25;34.20;99.90
5978;DHT22;3015;51.390;12.256;2022-09-03T12:41:55;34.10;99.90
5978;DHT22;3015;51.390;12.256;2022-09-03T12:44:28;34.10;99.90
5978;DHT22;3015;51.390;12.256;2022-09-03T12:49:41;32.80;99.90
5978;DHT22;3015;51.390;12.256;2022-09-03T12:52:45;33.40;99.90
5978;DHT22;3015;51.390;12.256;2022-09-03T13:01:07;34.90;99.90
5978;DHT22;3015;51.390;12.256;2022-09-03T13:06:27;34.50;99.90
5978;DHT22;3015;51.390;12.256;2022-09-03T13:08:58;34.50;99.90
5978;DHT22;3015;51.390;12.256;2022-09-03T13:11:26;34.60;99.90
5978;DHT22;3015;51.390;12.256;2022-09-03T13:13:55;33.90;99.90
5978;DHT22;3015;51.390;12.256;2022-09-03T13:19:42;34.60;99.90
5978;DHT22;3015;51.390;12.256;2022-09-03T13:30:22;35.40;99.90
5978;DHT22;3015;51.390;12.256;2022-09-03T13:33:07;35.00;99.90
5978;DHT22;3015;51.390;12.256;2022-09-03T13:35:53;34.10;99.90
5978;DHT22;3015;51.390;12.256;2022-09-03T13:44:06;33.80;99.90
5978;DHT22;3015;51.390;12.256;2022-09-03T13:46:38;34.00;99.90
5978;DHT22;3015;51.390;12.256;2022-09-03T13:51:59;33.50;99.90
5978;DHT22;3015;51.390;12.256;2022-09-03T13:54:36;33.50;99.90
5978;DHT22;3015;51.390;12.256;2022-09-03T13:57:24;33.70;99.90
5978;DHT22;3015;51.390;12.256;2022-09-03T14:00:04;33.80;99.90
5978;DHT22;3015;51.390;12.256;2022-09-03T14:08:23;33.30;99.90
5978;DHT22;3015;51.390;12.256;2022-09-03T14:11:01;33.40;99.90
5978;DHT22;3015;51.390;12.256;2022-09-03T14:16:36;33.90;99.90
5978;DHT22;3015;51.390;12.256;2022-09-03T14:19:38;34.20;99.90
5978;DHT22;3015;51.390;12.256;2022-09-03T14:22:12;34.10;99.90
5978;DHT22;3015;51.390;12.256;2022-09-03T14:24:54;33.90;99.90
5978;DHT22;3015;51.390;12.256;2022-09-03T14:27:24;33.70;99.90
5978;DHT22;3015;51.390;12.256;2022-09-03T14:29:56;33.70;99.90
5978;DHT22;3015;51.390;12.256;2022-09-03T14:41:35;33.20;99.90
5978;DHT22;3015;51.390;12.256;2022-09-03T14:44:20;32.80;99.90
5978;DHT22;3015;51.390;12.256;2022-09-03T14:57:48;29.20;99.90
5978;DHT22;3015;51.390;12.256;2022-09-03T15:00:35;28.70;99.90
5978;DHT22;3015;51.390;12.256;2022-09-03T15:11:23;28.40;99.90
5978;DHT22;3015;51.390;12.256;2022-09-03T15:16:55;28.30;99.90
5978;DHT22;3015;51.390;12.256;2022-09-03T15:19:37;28.90;99.90
5978;DHT22;3015;51.390;12.256;2022-09-03T15:30:39;28.80;99.90
5978;DHT22;3015;51.390;12.256;2022-09-03T15:33:32;28.40;99.90
5978;DHT22;3015;51.390;12.256;2022-09-03T15:36:19;28.30;99.90
5978;DHT22;3015;51.390;12.256;2022-09-03T15:39:00;28.40;99.90
5978;DHT22;3015;51.390;12.256;2022-09-03T15:41:43;28.40;99.90
5978;DHT22;3015;51.390;12.256;2022-09-03T15:44:16;28.30;99.90
5978;DHT22;3015;51.390;12.256;2022-09-03T15:55:06;27.40;99.90
5978;DHT22;3015;51.390;12.256;2022-09-03T15:57:57;27.00;99.90
5978;DHT22;3015;51.390;12.256;2022-09-03T16:01:00;26.70;99.90
5978;DHT22;3015;51.390;12.256;2022-09-03T16:12:20;27.60;99.90
5978;DHT22;3015;51.390;12.256;2022-09-03T16:15:13;27.90;99.90
5978;DHT22;3015;51.390;12.256;2022-09-03T16:20:33;28.10;99.90
5978;DHT22;3015;51.390;12.256;2022-09-03T16:23:05;28.00;99.90
5978;DHT22;3015;51.390;12.256;2022-09-03T16:25:48;28.10;99.90
5978;DHT22;3015;51.390;12.256;2022-09-03T16:28:19;28.00;99.90
5978;DHT22;3015;51.390;12.256;2022-09-03T16:42:30;26.70;99.90
5978;DHT22;3015;51.390;12.256;2022-09-03T17:07:02;23.80;99.90
5978;DHT22;3015;51.390;12.256;2022-09-03T17:09:53;23.70;99.90
5978;DHT22;3015;51.390;12.256;2022-09-03T17:12:42;23.40;99.90
5978;DHT22;3015;51.390;12.256;2022-09-03T17:15:31;23.20;99.90
5978;DHT22;3015;51.390;12.256;2022-09-03T17:29:25;22.60;99.90
5978;DHT22;3015;51.390;12.256;2022-09-03T17:31:57;22.40;99.90
5978;DHT22;3015;51.390;12.256;2022-09-03T17:37:10;22.10;99.90
5978;DHT22;3015;51.390;12.256;2022-09-03T17:42:50;21.80;99.90
5978;DHT22;3015;51.390;12.256;2022-09-03T17:45:21;21.70;99.90
5978;DHT22;3015;51.390;12.256;2022-09-03T17:51:11;21.30;99.90
5978;DHT22;3015;51.390;12.256;2022-09-03T17:53:49;21.10;99.90
5978;DHT22;3015;51.390;12.256;2022-09-03T17:56:29;21.00;99.90
5978;DHT22;3015;51.390;12.256;2022-09-03T17:59:09;20.80;99.90
5978;DHT22;3015;51.390;12.256;2022-09-03T18:01:40;20.60;99.90
5978;DHT22;3015;51.390;12.256;2022-09-03T18:10:09;20.10;99.90
5978;DHT22;3015;51.390;12.256;2022-09-03T18:15:28;20.00;99.90
5978;DHT22;3015;51.390;12.256;2022-09-03T18:18:28;19.90;99.90
5978;DHT22;3015;51.390;12.256;2022-09-03T18:20:57;19.90;99.90
5978;DHT22;3015;51.390;12.256;2022-09-03T18:24:04;19.80;99.90
5978;DHT22;3015;51.390;12.256;2022-09-03T18:26:56;19.90;99.90
5978;DHT22;3015;51.390;12.256;2022-09-03T18:29:49;19.80;99.90
5978;DHT22;3015;51.390;12.256;2022-09-03T18:32:37;19.80;99.90
5978;DHT22;3015;51.390;12.256;2022-09-03T18:35:23;19.80;99.90
5978;DHT22;3015;51.390;12.256;2022-09-03T18:38:08;19.80;99.90
5978;DHT22;3015;51.390;12.256;2022-09-03T18:40:56;19.70;99.90
5978;DHT22;3015;51.390;12.256;2022-09-03T18:44:02;19.70;99.90
5978;DHT22;3015;51.390;12.256;2022-09-03T18:49:46;19.60;99.90
5978;DHT22;3015;51.390;12.256;2022-09-03T18:52:42;19.60;99.90
5978;DHT22;3015;51.390;12.256;2022-09-03T19:01:40;19.60;99.90
5978;DHT22;3015;51.390;12.256;2022-09-03T19:07:50;19.50;99.90
5978;DHT22;3015;51.390;12.256;2022-09-03T19:10:50;19.50;99.90
5978;DHT22;3015;51.390;12.256;2022-09-03T19:13:39;19.40;99.90
5978;DHT22;3015;51.390;12.256;2022-09-03T19:16:54;19.40;99.90
5978;DHT22;3015;51.390;12.256;2022-09-03T19:19:51;19.20;99.90
5978;DHT22;3015;51.390;12.256;2022-09-03T19:22:40;19.20;99.90
5978;DHT22;3015;51.390;12.256;2022-09-03T19:25:27;19.10;99.90
5978;DHT22;3015;51.390;12.256;2022-09-03T19:28:23;19.00;99.90
5978;DHT22;3015;51.390;12.256;2022-09-03T19:34:14;18.90;99.90
5978;DHT22;3015;51.390;12.256;2022-09-03T19:40:24;18.90;99.90
5978;DHT22;3015;51.390;12.256;2022-09-03T19:46:52;18.80;99.90
5978;DHT22;3015;51.390;12.256;2022-09-03T19:52:56;18.60;99.90
5978;DHT22;3015;51.390;12.256;2022-09-03T19:55:54;18.60;99.90
5978;DHT22;3015;51.390;12.256;2022-09-03T19:59:09;18.50;99.90
5978;DHT22;3015;51.390;12.256;2022-09-03T20:01:54;18.60;99.90
5978;DHT22;3015;51.390;12.256;2022-09-03T20:04:47;18.50;99.90
5978;DHT22;3015;51.390;12.256;2022-09-03T20:07:34;18.50;99.90
5978;DHT22;3015;51.390;12.256;2022-09-03T20:10:20;18.50;99.90
5978;DHT22;3015;51.390;12.256;2022-09-03T20:13:07;18.50;99.90
5978;DHT22;3015;51.390;12.256;2022-09-03T20:15:56;18.50;99.90
5978;DHT22;3015;51.390;12.256;2022-09-03T20:21:12;18.40;99.90
5978;DHT22;3015;51.390;12.256;2022-09-03T20:23:56;18.50;99.90
5978;DHT22;3015;51.390;12.256;2022-09-03T20:34:52;18.60;99.90
5978;DHT22;3015;51.390;12.256;2022-09-03T20:38:15;18.60;99.90
5978;DHT22;3015;51.390;12.256;2022-09-03T20:43:37;18.50;99.90
5978;DHT22;3015;51.390;12.256;2022-09-03T20:46:17;18.50;99.90
5978;DHT22;3015;51.390;12.256;2022-09-03T20:51:54;18.40;99.90
5978;DHT22;3015;51.390;12.256;2022-09-03T20:54:31;18.30;99.90
5978;DHT22;3015;51.390;12.256;2022-09-03T21:11:10;17.70;99.90
5978;DHT22;3015;51.390;12.256;2022-09-03T21:16:37;17.40;99.90
5978;DHT22;3015;51.390;12.256;2022-09-03T21:19:10;17.40;99.90
5978;DHT22;3015;51.390;12.256;2022-09-03T21:24:46;17.30;99.90
5978;DHT22;3015;51.390;12.256;2022-09-03T21:27:15;17.20;99.90
5978;DHT22;3015;51.390;12.256;2022-09-03T21:30:06;17.10;99.90
5978;DHT22;3015;51.390;12.256;2022-09-03T21:32:37;17.10;99.90
5978;DHT22;3015;51.390;12.256;2022-09-03T21:37:44;17.00;99.90
5978;DHT22;3015;51.390;12.256;2022-09-03T21:40:12;17.00;99.90
5978;DHT22;3015;51.390;12.256;2022-09-03T21:42:50;17.00;99.90
5978;DHT22;3015;51.390;12.256;2022-09-03T21:45:42;17.00;99.90
5978;DHT22;3015;51.390;12.256;2022-09-03T21:48:16;17.10;99.90
5978;DHT22;3015;51.390;12.256;2022-09-03T21:50:53;17.10;99.90
5978;DHT22;3015;51.390;12.256;2022-09-03T22:01:56;17.20;99.90
5978;DHT22;3015;51.390;12.256;2022-09-03T22:04:25;17.20;99.90
5978;DHT22;3015;51.390;12.256;2022-09-03T22:07:10;17.20;99.90
5978;DHT22;3015;51.390;12.256;2022-09-03T22:10:00;17.10;99.90
5978;DHT22;3015;51.390;12.256;2022-09-03T22:15:10;17.20;99.90
5978;DHT22;3015;51.390;12.256;2022-09-03T22:17:47;17.20;99.90
5978;DHT22;3015;51.390;12.256;2022-09-03T22:20:19;17.20;99.90
5978;DHT22;3015;51.390;12.256;2022-09-03T22:22:54;17.20;99.90
5978;DHT22;3015;51.390;12.256;2022-09-03T22:25:51;17.20;99.90
5978;DHT22;3015;51.390;12.256;2022-09-03T22:28:38;17.20;99.90
5978;DHT22;3015;51.390;12.256;2022-09-03T22:31:11;17.20;99.90
5978;DHT22;3015;51.390;12.256;2022-09-03T22:36:23;17.20;99.90
5978;DHT22;3015;51.390;12.256;2022-09-03T22:44:58;17.20;99.90